ETH573 OMDB-HAAB
Flight info
| Callsign | ETH573 |
|---|---|
| Flight time | N/A |
| Altitude | 34000 |
| Route | ANVIX R401 GIDIS G783 ELUDA/N0491F400 G783 UKRAG/N0493F390 L710 KUKDI/N0491F400 B400 NODMA L702 ULALI T701 TORBA UB535 LAKBE LAKBE3A |
| Aircraft | B789/H-SDE1E2E3FGHIJ2J3J4J5M1RWXY/LB1D1 |
Departure
| Time | 2026-05-03 20:34 |
|---|---|
| Airport | Dubai International Airport (OMDB) |
Arrival
| Time | N/A |
|---|---|
| Airport | Addis Ababa Bole International Airport (HAAB) |
| Time | Latitude | Longitude | Altitude | Speed | Heading |
|---|---|---|---|---|---|
| 2026-05-03 20:15 | 25.24373 | 55.36929 | 27 ft | 0 kts | 31° |
| 2026-05-03 20:23 | 25.24369 | 55.36927 | 27 ft | 2 kts | 31° |
| 2026-05-03 20:24 | 25.24352 | 55.36916 | 26 ft | 3 kts | 31° |
| 2026-05-03 20:24 | 25.24335 | 55.36904 | 26 ft | 3 kts | 31° |
| 2026-05-03 20:24 | 25.24321 | 55.36895 | 27 ft | 2 kts | 31° |
| 2026-05-03 20:24 | 25.24306 | 55.36883 | 26 ft | 3 kts | 60° |
| 2026-05-03 20:25 | 25.24302 | 55.36866 | 24 ft | 3 kts | 109° |
| 2026-05-03 20:25 | 25.24311 | 55.36846 | 25 ft | 3 kts | 123° |
| 2026-05-03 20:25 | 25.24317 | 55.36836 | 25 ft | 1 kts | 121° |
| 2026-05-03 20:26 | 25.24316 | 55.36838 | 26 ft | 0 kts | 121° |
| 2026-05-03 20:27 | 25.24301 | 55.36865 | 24 ft | 6 kts | 121° |
| 2026-05-03 20:28 | 25.24266 | 55.36927 | 27 ft | 13 kts | 123° |
| 2026-05-03 20:28 | 25.24211 | 55.37021 | 27 ft | 16 kts | 122° |
| 2026-05-03 20:28 | 25.24151 | 55.37128 | 27 ft | 17 kts | 121° |
| 2026-05-03 20:28 | 25.24091 | 55.37239 | 27 ft | 17 kts | 120° |
| 2026-05-03 20:29 | 25.24030 | 55.37354 | 27 ft | 18 kts | 121° |
| 2026-05-03 20:29 | 25.23976 | 55.37476 | 27 ft | 18 kts | 99° |
| 2026-05-03 20:29 | 25.24014 | 55.37594 | 27 ft | 16 kts | 45° |
| 2026-05-03 20:29 | 25.24110 | 55.37667 | 27 ft | 17 kts | 33° |
| 2026-05-03 20:30 | 25.24216 | 55.37737 | 27 ft | 18 kts | 31° |
| 2026-05-03 20:30 | 25.24322 | 55.37810 | 27 ft | 14 kts | 31° |
| 2026-05-03 20:30 | 25.24406 | 55.37874 | 27 ft | 15 kts | 35° |
| 2026-05-03 20:30 | 25.24497 | 55.37944 | 27 ft | 16 kts | 33° |
| 2026-05-03 20:31 | 25.24595 | 55.38016 | 27 ft | 17 kts | 33° |
| 2026-05-03 20:31 | 25.24699 | 55.38087 | 27 ft | 15 kts | 30° |
| 2026-05-03 20:31 | 25.24753 | 55.38105 | 27 ft | 4 kts | 336° |
| 2026-05-03 20:31 | 25.24772 | 55.38085 | 27 ft | 6 kts | 309° |
| 2026-05-03 20:32 | 25.24786 | 55.38064 | 27 ft | 0 kts | 305° |
| 2026-05-03 20:32 | 25.24787 | 55.38063 | 27 ft | 0 kts | 304° |
| 2026-05-03 20:33 | 25.24788 | 55.38062 | 27 ft | 1 kts | 304° |
| 2026-05-03 20:33 | 25.24846 | 55.37960 | 27 ft | 41 kts | 302° |
| 2026-05-03 20:34 | 25.25102 | 55.37495 | 28 ft | 102 kts | 301° |
| 2026-05-03 20:34 | 25.25574 | 55.36642 | 28 ft | 155 kts | 301° |
| 2026-05-03 20:34 | 25.26192 | 55.35551 | 370 ft | 169 kts | 303° |
| 2026-05-03 20:34 | 25.26877 | 55.34455 | 1002 ft | 169 kts | 307° |
| 2026-05-03 20:35 | 25.27547 | 55.33367 | 1718 ft | 172 kts | 303° |
| 2026-05-03 20:35 | 25.28237 | 55.32189 | 2261 ft | 198 kts | 303° |
| 2026-05-03 20:35 | 25.28937 | 55.30785 | 2895 ft | 217 kts | 297° |
| 2026-05-03 20:35 | 25.29274 | 55.29150 | 3827 ft | 227 kts | 266° |
| 2026-05-03 20:36 | 25.28885 | 55.27532 | 5298 ft | 212 kts | 250° |
| 2026-05-03 20:36 | 25.28190 | 55.26072 | 6424 ft | 222 kts | 245° |
| 2026-05-03 20:36 | 25.27427 | 55.24485 | 6905 ft | 241 kts | 247° |
| 2026-05-03 20:36 | 25.26700 | 55.22793 | 6953 ft | 244 kts | 249° |
| 2026-05-03 20:37 | 25.25997 | 55.21098 | 6959 ft | 241 kts | 249° |
| 2026-05-03 20:37 | 25.25291 | 55.19422 | 6956 ft | 241 kts | 248° |
| 2026-05-03 20:37 | 25.24335 | 55.17909 | 6952 ft | 247 kts | 224° |
| 2026-05-03 20:37 | 25.22831 | 55.16946 | 6958 ft | 259 kts | 199° |
| 2026-05-03 20:38 | 25.20991 | 55.16783 | 6986 ft | 272 kts | 180° |
| 2026-05-03 20:38 | 25.19156 | 55.17320 | 6978 ft | 280 kts | 151° |
| 2026-05-03 20:38 | 25.17692 | 55.18788 | 6989 ft | 298 kts | 122° |
| 2026-05-03 20:38 | 25.16724 | 55.20879 | 7850 ft | 305 kts | 117° |
| 2026-05-03 20:39 | 25.15720 | 55.22955 | 9011 ft | 311 kts | 117° |
| 2026-05-03 20:39 | 25.14746 | 55.25114 | 10070 ft | 316 kts | 115° |
| 2026-05-03 20:39 | 25.13747 | 55.27361 | 10729 ft | 339 kts | 116° |
| 2026-05-03 20:39 | 25.12640 | 55.29776 | 11225 ft | 366 kts | 116° |
| 2026-05-03 20:40 | 25.11435 | 55.32376 | 11620 ft | 392 kts | 116° |
| 2026-05-03 20:40 | 25.10190 | 55.35085 | 12298 ft | 404 kts | 116° |
| 2026-05-03 20:40 | 25.08921 | 55.37859 | 13402 ft | 406 kts | 116° |
| 2026-05-03 20:40 | 25.07663 | 55.40599 | 14285 ft | 412 kts | 116° |
| 2026-05-03 20:41 | 25.06356 | 55.43440 | 15114 ft | 419 kts | 116° |
| 2026-05-03 20:41 | 25.05019 | 55.46328 | 15951 ft | 426 kts | 117° |
| 2026-05-03 20:41 | 25.03259 | 55.48980 | 16719 ft | 433 kts | 135° |
| 2026-05-03 20:41 | 25.00902 | 55.51072 | 17471 ft | 438 kts | 150° |
| 2026-05-03 20:42 | 24.98068 | 55.52449 | 18218 ft | 441 kts | 166° |
| 2026-05-03 20:42 | 24.95082 | 55.52972 | 18890 ft | 442 kts | 181° |
| 2026-05-03 20:42 | 24.91996 | 55.52677 | 19605 ft | 440 kts | 196° |
| 2026-05-03 20:42 | 24.89155 | 55.51576 | 20282 ft | 438 kts | 210° |
| 2026-05-03 20:43 | 24.86578 | 55.49814 | 20955 ft | 436 kts | 222° |
| 2026-05-03 20:43 | 24.84326 | 55.47582 | 21579 ft | 437 kts | 227° |
| 2026-05-03 20:43 | 24.82126 | 55.45256 | 22248 ft | 441 kts | 227° |
| 2026-05-03 20:43 | 24.79855 | 55.42945 | 22872 ft | 446 kts | 226° |
| 2026-05-03 20:44 | 24.77538 | 55.40654 | 23487 ft | 449 kts | 226° |
| 2026-05-03 20:44 | 24.75225 | 55.38332 | 23994 ft | 452 kts | 226° |
| 2026-05-03 20:44 | 24.72910 | 55.35971 | 24515 ft | 454 kts | 226° |
| 2026-05-03 20:44 | 24.70578 | 55.33606 | 25022 ft | 457 kts | 226° |
| 2026-05-03 20:45 | 24.68223 | 55.31241 | 25522 ft | 460 kts | 226° |
| 2026-05-03 20:45 | 24.65854 | 55.28861 | 26008 ft | 463 kts | 226° |
| 2026-05-03 20:45 | 24.63477 | 55.26461 | 26486 ft | 465 kts | 227° |
| 2026-05-03 20:45 | 24.61087 | 55.24049 | 26950 ft | 468 kts | 227° |
| 2026-05-03 20:46 | 24.59491 | 55.22443 | 27248 ft | 470 kts | 227° |
| 2026-05-03 20:46 | 24.57074 | 55.20015 | 27703 ft | 472 kts | 227° |
| 2026-05-03 20:46 | 24.54647 | 55.17576 | 28136 ft | 475 kts | 227° |
| 2026-05-03 20:46 | 24.52202 | 55.15117 | 28543 ft | 478 kts | 227° |
| 2026-05-03 20:47 | 24.49743 | 55.12646 | 29005 ft | 479 kts | 227° |
| 2026-05-03 20:47 | 24.47284 | 55.10181 | 29663 ft | 476 kts | 227° |
| 2026-05-03 20:47 | 24.44840 | 55.07730 | 30231 ft | 474 kts | 227° |
| 2026-05-03 20:47 | 24.42417 | 55.05299 | 30807 ft | 471 kts | 227° |
| 2026-05-03 20:48 | 24.40004 | 55.02880 | 31385 ft | 467 kts | 227° |
| 2026-05-03 20:48 | 24.37615 | 55.00487 | 31947 ft | 464 kts | 227° |
| 2026-05-03 20:48 | 24.35237 | 54.98107 | 32523 ft | 461 kts | 227° |
| 2026-05-03 20:48 | 24.32874 | 54.95743 | 33114 ft | 458 kts | 227° |
| 2026-05-03 20:49 | 24.30531 | 54.93398 | 33616 ft | 455 kts | 226° |
| 2026-05-03 20:49 | 24.28181 | 54.91047 | 33783 ft | 462 kts | 226° |
| 2026-05-03 20:49 | 24.25781 | 54.88645 | 33787 ft | 470 kts | 226° |
| 2026-05-03 20:50 | 24.20890 | 54.83767 | 33806 ft | 486 kts | 226° |